Time;durP1;ratioP1;P1;durP2;ratioP2;P2;SDS_P1;SDS_P2;PMS_P1;PMS_P2;Temp;Humidity;BMP_temperature;BMP_pressure;BME280_temperature;BME280_humidity;BME280_pressure;Samples;Min_cycle;Max_cycle;Signal;HPM_P1;HPM_P2
2022/10/12 00:00:08;;;;;;;13.33;7.57;;;7.30;99.90;;;;;;5287425;28;20846;-49
2022/10/12 00:02:40;;;;;;;15.23;6.93;;;7.30;99.90;;;;;;5274904;28;20538;-52
2022/10/12 00:05:11;;;;;;;15.30;8.00;;;7.20;99.90;;;;;;5289950;28;20507;-48
2022/10/12 00:07:41;;;;;;;21.73;8.43;;;7.20;99.90;;;;;;5281576;27;20430;-50
2022/10/12 00:10:12;;;;;;;16.10;7.20;;;7.20;99.90;;;;;;5289492;27;20474;-48
2022/10/12 00:12:43;;;;;;;12.77;7.10;;;7.20;99.90;;;;;;5283308;28;20193;-49
2022/10/12 00:15:14;;;;;;;14.57;7.43;;;7.20;99.90;;;;;;5271746;28;20300;-50
2022/10/12 00:17:45;;;;;;;15.07;7.97;;;7.20;99.90;;;;;;5291680;27;20513;-50
2022/10/12 00:20:15;;;;;;;15.40;7.57;;;7.20;99.90;;;;;;5287620;28;20192;-48
2022/10/12 00:22:46;;;;;;;21.50;8.90;;;7.20;99.90;;;;;;5276553;27;20189;-50
2022/10/12 00:25:16;;;;;;;10.53;6.10;;;7.10;99.90;;;;;;5280569;27;20204;-49
2022/10/12 00:27:47;;;;;;;15.07;6.43;;;7.10;99.90;;;;;;5272101;28;20181;-50
2022/10/12 00:30:18;;;;;;;15.30;8.50;;;7.10;99.90;;;;;;5259991;28;20664;-50
2022/10/12 00:32:48;;;;;;;19.13;7.70;;;7.10;99.90;;;;;;5288695;28;20200;-51
2022/10/12 00:35:19;;;;;;;14.37;6.70;;;7.10;99.90;;;;;;5285823;28;20657;-49
2022/10/12 00:37:54;;;;;;;11.07;6.10;;;7.10;99.90;;;;;;5286324;28;20184;-49
2022/10/12 00:40:24;;;;;;;15.60;6.13;;;7.10;99.90;;;;;;5265310;28;20238;-50
2022/10/12 00:42:55;;;;;;;14.53;6.00;;;7.10;99.90;;;;;;5288743;28;20447;-50
2022/10/12 00:45:26;;;;;;;11.50;5.53;;;7.00;99.90;;;;;;5286098;27;20209;-49
2022/10/12 00:47:58;;;;;;;8.90;6.07;;;7.00;99.90;;;;;;5285122;28;20671;-49
2022/10/12 00:50:32;;;;;;;12.67;5.83;;;7.00;99.90;;;;;;5274997;28;20426;-49
2022/10/12 00:53:07;;;;;;;25.17;7.17;;;7.00;99.90;;;;;;5281817;27;20454;-49
2022/10/12 00:55:44;;;;;;;10.20;6.20;;;7.00;99.90;;;;;;5278204;27;20446;-50
2022/10/12 00:58:15;;;;;;;15.43;5.90;;;7.00;99.90;;;;;;5277206;27;20424;-50
2022/10/12 01:00:46;;;;;;;15.03;6.43;;;7.00;99.90;;;;;;5265567;28;20449;-49
2022/10/12 01:03:20;;;;;;;26.43;6.90;;;7.00;99.90;;;;;;5274306;27;20901;-50
2022/10/12 01:05:51;;;;;;;12.43;6.33;;;7.00;99.90;;;;;;5291811;27;20740;-51
2022/10/12 01:08:22;;;;;;;20.40;6.37;;;6.90;99.90;;;;;;5267422;27;20439;-50
2022/10/12 01:10:52;;;;;;;18.23;5.87;;;6.90;99.90;;;;;;5269682;28;20714;-48
2022/10/12 01:13:23;;;;;;;23.73;7.50;;;6.90;99.90;;;;;;5272118;28;20291;-49
2022/10/12 01:16:03;;;;;;;15.47;6.40;;;6.90;99.90;;;;;;5275680;28;20212;-49
2022/10/12 01:19:09;;;;;;;18.70;5.90;;;7.00;99.90;;;;;;5285423;28;20169;-48
2022/10/12 01:21:47;;;;;;;10.07;5.10;;;6.90;99.90;;;;;;5276944;28;20430;-48
2022/10/12 01:25:05;;;;;;;12.93;5.80;;;6.90;99.90;;;;;;5289207;28;20428;-49
2022/10/12 01:27:46;;;;;;;9.07;5.07;;;6.90;99.90;;;;;;5198644;28;20998;-48
2022/10/12 01:30:18;;;;;;;11.30;5.53;;;6.80;99.90;;;;;;5187866;28;20495;-49
2022/10/12 01:33:03;;;;;;;10.50;5.30;;;6.80;99.90;;;;;;5237934;28;20472;-49
2022/10/12 01:35:55;;;;;;;16.80;6.60;;;6.80;99.90;;;;;;5279201;28;20478;-49
2022/10/12 01:38:46;;;;;;;10.33;6.60;;;6.80;99.90;;;;;;5290899;28;20813;-48
2022/10/12 01:41:30;;;;;;;12.80;6.20;;;6.80;99.90;;;;;;5276155;28;20570;-50
2022/10/12 01:44:01;;;;;;;13.33;6.20;;;6.70;99.90;;;;;;5276604;27;20431;-48
2022/10/12 01:46:32;;;;;;;19.33;5.97;;;6.70;99.90;;;;;;5279863;27;20537;-49
2022/10/12 01:49:02;;;;;;;9.67;5.53;;;6.70;99.90;;;;;;5284693;28;20256;-47
2022/10/12 01:51:51;;;;;;;23.23;5.77;;;6.70;99.90;;;;;;5274970;28;20173;-48
2022/10/12 01:54:27;;;;;;;20.20;6.00;;;6.70;99.90;;;;;;5274209;28;20235;-48
2022/10/12 01:57:11;;;;;;;13.17;5.87;;;6.70;99.90;;;;;;5268772;28;20439;-49
2022/10/12 01:59:58;;;;;;;17.43;6.07;;;6.70;99.90;;;;;;5275662;28;20426;-48
2022/10/12 02:03:09;;;;;;;11.87;6.30;;;6.70;99.90;;;;;;5271829;28;20427;-49
2022/10/12 02:05:59;;;;;;;12.50;5.40;;;6.70;99.90;;;;;;5264912;28;20541;-49
2022/10/12 02:08:58;;;;;;;20.67;6.97;;;6.70;99.90;;;;;;5262653;28;20431;-48
2022/10/12 02:11:33;;;;;;;15.60;6.40;;;6.60;99.90;;;;;;5273550;27;20569;-49
2022/10/12 02:14:15;;;;;;;20.20;6.93;;;6.60;99.90;;;;;;5268615;28;20524;-50
2022/10/12 02:16:53;;;;;;;14.50;6.33;;;6.60;99.90;;;;;;5261474;28;20450;-49
2022/10/12 02:19:31;;;;;;;11.27;6.60;;;6.60;99.90;;;;;;5279655;28;20469;-49
2022/10/12 02:22:04;;;;;;;12.73;6.80;;;6.60;99.90;;;;;;5288140;28;20423;-49
2022/10/12 02:24:39;;;;;;;11.13;5.93;;;6.60;99.90;;;;;;5273068;28;20835;-48
2022/10/12 02:27:13;;;;;;;19.20;6.83;;;6.60;99.90;;;;;;5283709;27;20474;-50
2022/10/12 02:29:46;;;;;;;10.30;6.00;;;6.50;99.90;;;;;;5268349;28;20790;-49
2022/10/12 02:32:36;;;;;;;22.27;6.77;;;6.50;99.90;;;;;;5281385;28;20461;-49
2022/10/12 02:35:10;;;;;;;18.83;7.00;;;6.50;99.90;;;;;;5279551;27;20435;-49
2022/10/12 02:37:45;;;;;;;8.00;5.90;;;6.50;99.90;;;;;;5282073;28;20442;-49
2022/10/12 02:40:41;;;;;;;16.10;7.00;;;6.50;99.90;;;;;;5281906;27;20437;-48
2022/10/12 02:43:29;;;;;;;12.17;5.90;;;6.40;99.90;;;;;;5281134;28;20462;-48
2022/10/12 02:46:01;;;;;;;11.43;6.83;;;6.40;99.90;;;;;;5269223;28;21311;-49
2022/10/12 02:48:34;;;;;;;10.00;6.40;;;6.40;99.90;;;;;;5269785;28;20806;-48
2022/10/12 02:51:07;;;;;;;13.30;6.70;;;6.40;99.90;;;;;;5281537;28;20446;-52
2022/10/12 02:53:38;;;;;;;14.70;7.43;;;6.40;99.90;;;;;;5272391;28;20465;-49
2022/10/12 02:56:13;;;;;;;11.90;6.33;;;6.40;99.90;;;;;;5289600;28;20455;-49
2022/10/12 02:58:46;;;;;;;10.60;7.20;;;6.40;99.90;;;;;;5259697;28;20443;-54
2022/10/12 03:01:16;;;;;;;17.93;6.93;;;6.40;99.90;;;;;;5273642;28;20949;-49
2022/10/12 03:03:47;;;;;;;15.17;8.30;;;6.50;99.90;;;;;;5270509;28;20468;-49
2022/10/12 03:06:19;;;;;;;15.87;7.70;;;6.40;99.90;;;;;;5261398;28;20215;-50
2022/10/12 03:08:49;;;;;;;17.30;7.60;;;6.40;99.90;;;;;;5284076;28;20177;-50
2022/10/12 03:11:20;;;;;;;30.37;7.87;;;6.40;99.90;;;;;;5277133;28;20461;-50
2022/10/12 03:13:54;;;;;;;11.77;7.50;;;6.40;99.90;;;;;;5277565;27;20296;-49
2022/10/12 03:16:25;;;;;;;19.97;8.77;;;6.40;99.90;;;;;;5273319;28;20549;-49
2022/10/12 03:18:55;;;;;;;15.00;8.10;;;6.40;99.90;;;;;;5290022;28;20524;-52
2022/10/12 03:21:26;;;;;;;17.53;8.47;;;6.40;99.90;;;;;;5285190;28;20197;-49
2022/10/12 03:23:56;;;;;;;24.93;8.20;;;6.40;99.90;;;;;;5283160;28;20196;-48
2022/10/12 03:26:27;;;;;;;13.10;8.53;;;6.30;99.90;;;;;;5272603;28;20220;-48
2022/10/12 03:28:57;;;;;;;16.63;8.70;;;6.30;99.90;;;;;;5272399;28;20644;-48
2022/10/12 03:31:28;;;;;;;19.73;9.07;;;6.30;99.90;;;;;;5274093;28;20180;-49
2022/10/12 03:33:58;;;;;;;23.23;8.97;;;6.30;99.90;;;;;;5275291;28;20660;-48
2022/10/12 03:36:29;;;;;;;29.93;8.80;;;6.30;99.90;;;;;;5269035;28;20207;-48
2022/10/12 03:39:00;;;;;;;26.20;10.23;;;6.30;99.90;;;;;;5270189;28;21118;-49
2022/10/12 03:41:30;;;;;;;23.90;9.97;;;6.30;99.90;;;;;;5273170;28;20189;-49
2022/10/12 03:44:01;;;;;;;18.50;10.30;;;6.30;99.90;;;;;;5268841;28;20189;-49
2022/10/12 03:46:31;;;;;;;23.73;9.30;;;6.30;99.90;;;;;;5277447;22;20702;-48
2022/10/12 03:49:02;;;;;;;26.60;10.90;;;6.30;99.90;;;;;;5247153;28;20189;-48
2022/10/12 03:51:33;;;;;;;17.27;7.93;;;6.30;99.90;;;;;;5257336;28;20254;-48
2022/10/12 03:54:03;;;;;;;12.23;8.57;;;6.30;99.90;;;;;;5243733;28;20210;-49
2022/10/12 03:56:34;;;;;;;17.50;9.03;;;6.30;99.90;;;;;;5246675;28;20198;-48
2022/10/12 03:59:05;;;;;;;22.30;9.27;;;6.30;99.90;;;;;;5240900;28;20273;-48
2022/10/12 04:01:35;;;;;;;21.33;9.37;;;6.30;99.90;;;;;;5258895;28;20653;-46
2022/10/12 04:04:06;;;;;;;18.20;9.80;;;6.30;99.90;;;;;;5244223;28;20229;-46
2022/10/12 04:06:36;;;;;;;18.37;9.83;;;6.30;99.90;;;;;;5243329;28;20209;-48
2022/10/12 04:09:07;;;;;;;12.83;8.70;;;6.30;99.90;;;;;;5245391;28;20186;-46
2022/10/12 04:11:38;;;;;;;19.20;8.53;;;6.30;99.90;;;;;;5242140;28;20190;-48
2022/10/12 04:14:08;;;;;;;20.83;8.57;;;6.30;99.90;;;;;;5244404;28;20263;-47
2022/10/12 04:16:39;;;;;;;20.67;9.50;;;6.30;99.90;;;;;;5239166;28;20212;-48
2022/10/12 04:19:13;;;;;;;19.90;8.67;;;6.20;99.90;;;;;;5243591;28;20251;-47
2022/10/12 04:21:43;;;;;;;15.83;8.80;;;6.20;99.90;;;;;;5236952;28;20174;-48
2022/10/12 04:24:14;;;;;;;22.80;10.00;;;6.20;99.90;;;;;;5242891;28;20443;-47
2022/10/12 04:26:44;;;;;;;29.33;10.63;;;6.20;99.90;;;;;;5244461;28;20662;-47
2022/10/12 04:29:15;;;;;;;23.87;9.73;;;6.10;99.90;;;;;;5238578;28;20665;-47
2022/10/12 04:31:46;;;;;;;25.67;10.23;;;6.10;99.90;;;;;;5239713;28;20182;-48
2022/10/12 04:34:16;;;;;;;23.83;10.63;;;6.10;99.90;;;;;;5243786;28;20201;-49
2022/10/12 04:36:47;;;;;;;25.30;10.87;;;6.10;99.90;;;;;;5248655;28;20686;-49
2022/10/12 04:39:17;;;;;;;16.97;9.80;;;6.10;99.90;;;;;;5241671;28;20800;-48
2022/10/12 04:41:48;;;;;;;19.70;10.70;;;6.10;99.90;;;;;;5260522;28;20174;-48
2022/10/12 04:44:19;;;;;;;20.57;10.23;;;6.10;99.90;;;;;;5245761;28;20317;-48
2022/10/12 04:46:50;;;;;;;26.30;10.23;;;6.10;99.90;;;;;;5247079;28;20685;-48
2022/10/12 04:49:20;;;;;;;22.23;10.20;;;6.20;99.90;;;;;;5240398;28;20443;-48
2022/10/12 04:51:51;;;;;;;19.23;9.67;;;6.20;99.90;;;;;;5238384;28;20900;-48
2022/10/12 04:54:21;;;;;;;23.47;10.87;;;6.20;99.90;;;;;;5248214;28;20299;-47
2022/10/12 04:56:52;;;;;;;22.80;11.70;;;6.20;99.90;;;;;;5243634;28;20205;-48
2022/10/12 04:59:22;;;;;;;16.87;10.53;;;6.20;99.90;;;;;;5264189;28;20236;-49
2022/10/12 05:01:53;;;;;;;24.60;10.83;;;6.10;99.90;;;;;;5224161;28;20186;-48
2022/10/12 05:04:24;;;;;;;24.40;10.37;;;6.10;99.90;;;;;;5253198;28;20643;-46
2022/10/12 05:06:54;;;;;;;20.17;11.10;;;6.10;99.90;;;;;;5246137;28;20693;-48
2022/10/12 05:09:25;;;;;;;22.27;10.60;;;6.10;99.90;;;;;;5244045;28;20178;-47
2022/10/12 05:11:55;;;;;;;32.77;10.47;;;6.10;99.90;;;;;;5239374;28;20224;-49
2022/10/12 05:14:26;;;;;;;26.47;10.60;;;6.10;99.90;;;;;;5244507;28;20343;-46
2022/10/12 05:16:56;;;;;;;20.93;10.30;;;6.10;99.90;;;;;;5246168;28;20194;-49
2022/10/12 05:19:27;;;;;;;33.90;11.20;;;6.10;99.90;;;;;;5244999;28;20247;-47
2022/10/12 05:21:57;;;;;;;16.87;9.30;;;6.10;99.90;;;;;;5248661;28;20192;-48
2022/10/12 05:24:28;;;;;;;21.93;10.47;;;6.10;99.90;;;;;;5240208;28;20693;-46
2022/10/12 05:26:58;;;;;;;17.57;9.97;;;6.10;99.90;;;;;;5243914;28;20713;-47
2022/10/12 05:29:29;;;;;;;20.83;10.27;;;6.10;99.90;;;;;;5247532;28;20553;-50
2022/10/12 05:32:00;;;;;;;18.43;10.33;;;6.10;99.90;;;;;;5247634;28;20186;-48
2022/10/12 05:34:30;;;;;;;23.70;10.80;;;6.20;99.90;;;;;;5243873;28;20228;-48
2022/10/12 05:37:01;;;;;;;33.27;11.80;;;6.10;99.90;;;;;;5245359;28;20229;-48
2022/10/12 05:39:32;;;;;;;30.63;11.60;;;6.20;99.90;;;;;;5263900;28;20300;-47
2022/10/12 05:42:03;;;;;;;26.77;10.70;;;6.20;99.90;;;;;;5251492;28;20206;-48
2022/10/12 05:44:33;;;;;;;29.67;10.80;;;6.20;99.90;;;;;;5252575;28;20186;-48
2022/10/12 05:47:04;;;;;;;23.37;10.27;;;6.20;99.90;;;;;;5245912;28;20570;-47
2022/10/12 05:49:34;;;;;;;32.60;10.80;;;6.30;99.90;;;;;;5247364;28;20209;-47
2022/10/12 05:52:05;;;;;;;23.53;9.83;;;6.30;99.90;;;;;;5250277;28;20597;-47
2022/10/12 05:54:36;;;;;;;13.43;7.83;;;6.30;99.90;;;;;;5251468;28;20289;-50
2022/10/12 05:57:06;;;;;;;18.10;9.60;;;6.40;99.90;;;;;;5253479;28;20210;-50
2022/10/12 05:59:37;;;;;;;14.83;8.23;;;6.50;99.90;;;;;;5238353;28;20182;-48
2022/10/12 06:02:12;;;;;;;22.00;9.67;;;6.50;99.90;;;;;;5240050;28;20273;-47
2022/10/12 06:04:43;;;;;;;29.93;8.80;;;6.60;99.90;;;;;;5261037;28;20196;-47
2022/10/12 06:07:14;;;;;;;20.20;9.00;;;6.60;99.90;;;;;;5241426;28;20461;-48
2022/10/12 06:09:46;;;;;;;11.37;7.90;;;6.80;99.90;;;;;;5247121;28;20617;-49
2022/10/12 06:12:17;;;;;;;14.13;8.40;;;6.80;99.90;;;;;;5237730;28;20261;-48
2022/10/12 06:14:47;;;;;;;13.47;6.70;;;6.90;99.90;;;;;;5247002;28;20525;-48
2022/10/12 06:17:21;;;;;;;24.27;8.60;;;7.00;99.90;;;;;;5246659;28;20283;-47
2022/10/12 06:19:51;;;;;;;20.53;8.60;;;7.10;99.90;;;;;;5247979;28;20240;-48
2022/10/12 06:22:22;;;;;;;17.17;9.03;;;7.50;99.90;;;;;;5264261;28;20774;-48
2022/10/12 06:24:52;;;;;;;19.63;8.60;;;8.10;99.90;;;;;;5248614;28;20179;-48
2022/10/12 06:27:24;;;;;;;26.73;7.57;;;9.10;99.90;;;;;;5242017;28;20202;-48
2022/10/12 06:29:54;;;;;;;14.93;7.33;;;10.90;99.90;;;;;;5248627;28;20186;-47
2022/10/12 06:32:25;;;;;;;17.43;8.33;;;12.60;99.90;;;;;;5241545;28;20998;-47
2022/10/12 06:34:55;;;;;;;13.80;6.53;;;14.10;99.90;;;;;;5240872;28;20179;-47
2022/10/12 06:37:28;;;;;;;16.27;6.33;;;15.30;96.10;;;;;;5244490;28;20198;-50
2022/10/12 06:39:59;;;;;;;10.40;6.27;;;16.40;90.70;;;;;;5247753;28;20210;-49
2022/10/12 06:42:30;;;;;;;11.40;6.20;;;17.20;79.60;;;;;;5247193;28;20444;-47
2022/10/12 06:45:02;;;;;;;12.80;6.40;;;18.20;70.00;;;;;;5241912;28;20233;-48
2022/10/12 06:47:33;;;;;;;10.33;5.70;;;18.80;63.20;;;;;;5244345;28;21052;-48
2022/10/12 06:50:04;;;;;;;13.70;5.63;;;19.40;59.90;;;;;;5242407;28;20483;-48
2022/10/12 06:52:35;;;;;;;19.40;7.10;;;19.90;56.70;;;;;;5243064;28;20577;-47
2022/10/12 06:55:06;;;;;;;13.90;6.33;;;20.50;54.50;;;;;;5247378;28;20447;-47
2022/10/12 06:57:37;;;;;;;18.33;7.10;;;21.10;51.70;;;;;;5243443;28;20518;-47
2022/10/12 07:00:08;;;;;;;13.90;7.00;;;21.50;51.00;;;;;;5241393;28;20448;-49
2022/10/12 07:02:39;;;;;;;15.50;6.77;;;22.00;49.40;;;;;;5244442;28;20182;-47
2022/10/12 07:05:10;;;;;;;13.10;6.73;;;22.50;47.80;;;;;;5245958;28;20458;-45
2022/10/12 07:07:41;;;;;;;16.40;6.63;;;22.90;45.40;;;;;;5244127;28;20213;-47
2022/10/12 07:10:11;;;;;;;11.77;6.00;;;23.20;44.80;;;;;;5263116;28;20189;-46
2022/10/12 07:12:42;;;;;;;11.57;6.27;;;23.30;44.10;;;;;;5250118;28;20464;-47
2022/10/12 07:15:12;;;;;;;21.70;5.70;;;23.00;43.60;;;;;;5248709;28;20177;-47
2022/10/12 07:17:43;;;;;;;9.33;5.17;;;22.80;44.00;;;;;;5244426;28;20186;-47
2022/10/12 07:20:14;;;;;;;11.80;5.70;;;22.90;43.90;;;;;;5241983;28;20186;-47
2022/10/12 07:22:44;;;;;;;10.37;5.80;;;23.40;43.20;;;;;;5246158;28;20182;-47
2022/10/12 07:25:15;;;;;;;21.43;6.03;;;23.50;42.90;;;;;;5251108;28;20221;-47
2022/10/12 07:27:48;;;;;;;11.67;5.33;;;23.00;43.30;;;;;;5253255;28;20182;-48
2022/10/12 07:30:19;;;;;;;17.70;5.60;;;21.80;44.70;;;;;;5262287;28;20182;-46
2022/10/12 07:32:50;;;;;;;14.47;5.77;;;19.80;48.00;;;;;;5238141;28;20467;-47
2022/10/12 07:35:20;;;;;;;10.70;5.67;;;17.90;51.30;;;;;;5243923;28;20186;-48
2022/10/12 07:37:51;;;;;;;23.43;6.03;;;16.30;54.60;;;;;;5242582;28;20523;-47
2022/10/12 07:40:21;;;;;;;15.63;5.80;;;15.30;58.30;;;;;;5242156;28;20598;-50
2022/10/12 07:42:52;;;;;;;9.93;5.60;;;14.40;60.80;;;;;;5244652;28;20187;-50
2022/10/12 07:45:23;;;;;;;11.57;5.10;;;13.80;65.20;;;;;;5247756;28;20197;-47
2022/10/12 07:47:54;;;;;;;13.73;6.30;;;13.30;71.60;;;;;;5246161;28;20194;-46
2022/10/12 07:50:25;;;;;;;17.67;6.40;;;13.00;78.90;;;;;;5245274;28;20190;-47
2022/10/12 07:52:56;;;;;;;12.73;5.67;;;12.60;86.90;;;;;;5243370;28;20962;-48
2022/10/12 07:55:28;;;;;;;26.50;8.37;;;12.20;93.10;;;;;;5239635;28;20610;-47
2022/10/12 07:57:59;;;;;;;23.50;6.10;;;11.90;95.70;;;;;;5246552;28;20440;-48
2022/10/12 08:00:30;;;;;;;25.33;7.00;;;11.80;98.20;;;;;;5243824;28;20437;-51
2022/10/12 08:03:01;;;;;;;13.60;7.40;;;11.70;99.90;;;;;;5245939;28;20179;-47
2022/10/12 08:05:31;;;;;;;7.10;5.33;;;11.60;99.90;;;;;;5236968;28;20464;-49
2022/10/12 08:08:02;;;;;;;10.33;6.40;;;11.60;99.90;;;;;;5244526;28;20186;-46
2022/10/12 08:10:34;;;;;;;14.83;6.67;;;11.60;99.90;;;;;;5250788;28;20591;-47
2022/10/12 08:13:05;;;;;;;15.20;5.93;;;11.60;99.90;;;;;;5241775;28;20545;-46
2022/10/12 08:15:35;;;;;;;18.90;6.77;;;11.60;99.90;;;;;;5248260;28;20452;-47
2022/10/12 08:18:06;;;;;;;11.30;5.50;;;11.70;99.90;;;;;;5250922;28;20179;-47
2022/10/12 08:20:38;;;;;;;17.73;4.70;;;11.80;99.90;;;;;;5247469;28;20186;-48
2022/10/12 08:23:09;;;;;;;11.67;4.47;;;11.90;99.90;;;;;;5249613;28;20169;-49
2022/10/12 08:25:39;;;;;;;9.30;4.43;;;12.00;99.90;;;;;;5245194;28;20540;-50
2022/10/12 08:28:10;;;;;;;6.63;4.47;;;12.10;99.90;;;;;;5252234;28;20186;-49
2022/10/12 08:30:40;;;;;;;16.20;5.53;;;12.20;99.90;;;;;;5254934;28;20311;-48
2022/10/12 08:33:12;;;;;;;14.87;5.60;;;12.20;99.90;;;;;;5250844;28;20202;-45
2022/10/12 08:35:43;;;;;;;17.83;5.43;;;12.20;99.90;;;;;;5253995;28;20717;-52
2022/10/12 08:38:14;;;;;;;25.97;5.37;;;12.20;99.90;;;;;;5246686;28;20436;-48
2022/10/12 08:40:57;;;;;;;18.90;5.67;;;12.10;99.90;;;;;;5246478;28;20427;-46
2022/10/12 08:43:47;;;;;;;10.00;4.10;;;12.10;99.90;;;;;;5248214;28;20445;-47
2022/10/12 08:46:20;;;;;;;21.60;4.93;;;12.00;99.90;;;;;;5237123;28;20552;-49
2022/10/12 08:48:59;;;;;;;8.30;3.83;;;12.00;99.90;;;;;;5246000;28;20484;-49
2022/10/12 08:51:32;;;;;;;30.27;5.10;;;12.10;99.90;;;;;;5244884;28;20440;-50
2022/10/12 08:54:06;;;;;;;13.30;4.80;;;12.30;99.90;;;;;;5264817;28;20456;-48
2022/10/12 08:56:39;;;;;;;11.83;4.23;;;12.30;99.90;;;;;;5241865;28;20463;-48
2022/10/12 08:59:16;;;;;;;8.23;3.43;;;12.30;99.90;;;;;;5242643;28;20440;-49
2022/10/12 09:02:04;;;;;;;10.30;3.70;;;12.30;99.90;;;;;;5249061;28;20429;-49
2022/10/12 09:05:00;;;;;;;8.13;3.43;;;12.50;99.90;;;;;;5257456;28;20550;-47
2022/10/12 09:07:38;;;;;;;16.60;5.33;;;12.60;99.90;;;;;;5242923;28;20461;-48
2022/10/12 09:10:28;;;;;;;19.33;4.13;;;12.70;99.90;;;;;;5244060;28;20440;-47
2022/10/12 09:13:37;;;;;;;8.93;3.83;;;12.70;99.80;;;;;;5237041;28;20499;-47
2022/10/12 09:16:29;;;;;;;17.33;4.60;;;12.70;99.70;;;;;;5242888;28;20514;-53
2022/10/12 09:19:07;;;;;;;15.13;3.60;;;12.70;99.20;;;;;;5227286;28;20979;-46
2022/10/12 09:21:40;;;;;;;14.83;4.10;;;12.80;99.00;;;;;;5246630;28;20431;-47
2022/10/12 09:24:18;;;;;;;8.87;3.57;;;12.80;98.30;;;;;;5230964;28;20818;-47
2022/10/12 09:26:52;;;;;;;9.40;3.33;;;12.90;97.70;;;;;;5238222;28;20537;-47
2022/10/12 09:29:30;;;;;;;5.97;3.37;;;13.00;98.30;;;;;;5255566;28;20456;-49
2022/10/12 09:32:12;;;;;;;14.00;2.90;;;13.00;97.30;;;;;;5253779;28;20882;-47
2022/10/12 09:34:44;;;;;;;5.07;3.20;;;13.30;97.40;;;;;;5235970;28;20528;-48
2022/10/12 09:37:19;;;;;;;9.67;2.83;;;13.40;96.70;;;;;;5246713;28;20593;-48
2022/10/12 09:39:50;;;;;;;10.17;4.00;;;13.40;95.60;;;;;;5249672;28;20779;-47
2022/10/12 09:42:21;;;;;;;6.03;2.17;;;13.50;95.70;;;;;;5242637;28;20531;-50
2022/10/12 09:44:55;;;;;;;17.90;4.50;;;13.50;95.70;;;;;;5248857;28;21073;-47
2022/10/12 09:47:31;;;;;;;4.00;3.50;;;13.60;94.50;;;;;;5245601;28;20217;-48
2022/10/12 09:50:04;;;;;;;17.83;3.13;;;13.50;94.80;;;;;;5250112;28;20428;-49
2022/10/12 09:52:34;;;;;;;4.00;2.70;;;13.50;94.30;;;;;;5248414;28;21090;-48
2022/10/12 09:55:24;;;;;;;5.50;3.63;;;13.50;94.50;;;;;;5245619;28;20424;-48
2022/10/12 09:57:58;;;;;;;11.50;3.00;;;13.80;93.70;;;;;;5247547;28;20189;-49
2022/10/12 10:00:30;;;;;;;13.10;3.80;;;13.80;93.50;;;;;;5247396;28;20443;-50
2022/10/12 10:03:01;;;;;;;4.93;3.10;;;13.70;92.40;;;;;;5250353;28;20442;-50
2022/10/12 10:05:35;;;;;;;8.13;3.07;;;13.70;92.50;;;;;;5243989;28;20467;-48
2022/10/12 10:08:20;;;;;;;6.70;3.40;;;13.70;92.30;;;;;;5248589;28;20532;-48
2022/10/12 10:10:52;;;;;;;8.97;3.57;;;13.70;92.50;;;;;;5245291;28;20432;-48
2022/10/12 10:13:27;;;;;;;12.13;2.90;;;13.70;92.60;;;;;;5249993;28;20456;-50
2022/10/12 10:16:18;;;;;;;9.13;3.80;;;13.70;92.20;;;;;;5243355;28;20523;-48
2022/10/12 10:18:54;;;;;;;9.37;2.50;;;13.70;90.90;;;;;;5242087;28;20465;-50
2022/10/12 10:21:33;;;;;;;5.70;2.47;;;13.80;90.90;;;;;;5246720;28;20424;-50
2022/10/12 10:24:06;;;;;;;8.57;3.27;;;13.80;91.10;;;;;;5253136;28;20436;-50
2022/10/12 10:26:57;;;;;;;15.33;3.33;;;13.80;90.80;;;;;;5247445;28;20460;-51
2022/10/12 10:29:31;;;;;;;6.90;2.90;;;13.90;90.90;;;;;;5216502;28;21012;-49
2022/10/12 10:32:25;;;;;;;4.50;2.73;;;14.00;90.30;;;;;;5244017;28;20479;-48
2022/10/12 10:35:12;;;;;;;6.57;2.60;;;14.00;90.70;;;;;;5244495;28;20459;-50
2022/10/12 10:37:49;;;;;;;2.77;1.77;;;14.10;90.30;;;;;;5243856;28;20910;-49
2022/10/12 10:40:26;;;;;;;18.33;2.57;;;14.20;90.20;;;;;;5246619;28;20507;-48
2022/10/12 10:43:03;;;;;;;12.73;3.20;;;14.10;88.20;;;;;;5236028;28;20439;-50
2022/10/12 10:45:43;;;;;;;5.93;2.70;;;14.10;89.00;;;;;;5254878;28;20509;-51
2022/10/12 10:48:18;;;;;;;10.57;3.33;;;14.10;88.40;;;;;;5236832;28;20428;-50
2022/10/12 10:51:03;;;;;;;9.17;2.63;;;14.10;88.20;;;;;;5244578;28;20470;-49
2022/10/12 10:53:49;;;;;;;6.70;2.80;;;14.20;87.60;;;;;;5243237;28;20555;-51
2022/10/12 10:56:27;;;;;;;7.23;1.97;;;14.20;86.40;;;;;;5245211;28;20463;-52
2022/10/12 10:59:18;;;;;;;11.07;2.90;;;14.20;86.60;;;;;;5244894;28;20485;-48
2022/10/12 11:01:54;;;;;;;18.23;2.27;;;14.10;86.80;;;;;;5244819;28;20950;-48
2022/10/12 11:04:38;;;;;;;2.73;1.60;;;14.20;85.60;;;;;;5244753;28;20423;-50
2022/10/12 11:07:34;;;;;;;10.80;2.60;;;14.20;86.10;;;;;;5233825;28;20531;-48
2022/10/12 11:10:16;;;;;;;8.30;2.73;;;14.40;86.80;;;;;;5238799;28;21113;-51
2022/10/12 11:12:51;;;;;;;5.93;2.67;;;14.60;87.50;;;;;;5243980;28;20488;-48
2022/10/12 11:15:35;;;;;;;3.73;1.97;;;14.70;83.50;;;;;;5245810;28;20488;-48
2022/10/12 11:18:22;;;;;;;5.80;2.37;;;14.70;82.60;;;;;;5238701;28;20421;-48
2022/10/12 11:21:13;;;;;;;3.03;1.50;;;14.70;83.10;;;;;;5245632;28;20554;-47
2022/10/12 11:23:52;;;;;;;17.40;3.33;;;14.70;83.30;;;;;;5243829;28;20428;-47
2022/10/12 11:26:41;;;;;;;12.20;3.10;;;14.70;81.50;;;;;;5243541;28;20457;-50
2022/10/12 11:29:16;;;;;;;3.77;2.00;;;14.70;81.40;;;;;;5245904;28;20855;-47
2022/10/12 11:32:02;;;;;;;6.33;2.40;;;14.70;81.00;;;;;;5260048;28;20951;-48
2022/10/12 11:35:03;;;;;;;8.87;3.10;;;14.90;80.20;;;;;;5243131;28;20467;-49
2022/10/12 11:37:39;;;;;;;8.63;2.40;;;15.00;77.80;;;;;;5255661;28;20509;-50
2022/10/12 11:40:20;;;;;;;6.03;3.20;;;15.00;77.10;;;;;;5243105;28;20986;-52
2022/10/12 11:42:51;;;;;;;4.57;1.87;;;15.20;76.60;;;;;;5241395;28;20464;-52
2022/10/12 11:45:29;;;;;;;4.27;2.10;;;15.10;75.90;;;;;;5246215;28;20446;-50
2022/10/12 11:48:16;;;;;;;4.03;1.90;;;15.00;75.80;;;;;;5250856;28;20444;-49
2022/10/12 11:50:48;;;;;;;13.93;2.47;;;14.80;76.10;;;;;;5250370;28;20444;-51
2022/10/12 11:53:34;;;;;;;7.93;2.53;;;14.80;77.00;;;;;;5248630;28;20474;-48
2022/10/12 11:56:10;;;;;;;3.47;1.40;;;15.00;76.70;;;;;;5249777;28;20563;-52
2022/10/12 11:58:44;;;;;;;8.47;1.90;;;15.00;75.80;;;;;;5244534;28;20581;-49
2022/10/12 12:01:20;;;;;;;4.93;2.07;;;14.90;75.40;;;;;;5246207;28;20468;-49
2022/10/12 12:04:27;;;;;;;12.50;3.10;;;15.00;75.10;;;;;;5244087;28;20448;-50
2022/10/12 12:07:25;;;;;;;9.17;2.80;;;15.00;75.30;;;;;;5252735;28;20824;-51
2022/10/12 12:09:56;;;;;;;3.97;1.97;;;15.10;75.00;;;;;;5255692;28;20440;-51
2022/10/12 12:12:28;;;;;;;6.97;2.67;;;14.80;71.80;;;;;;5261597;28;20433;-51
2022/10/12 12:15:06;;;;;;;6.03;2.00;;;14.80;71.90;;;;;;5243004;28;20190;-50
2022/10/12 12:17:37;;;;;;;11.17;1.97;;;15.00;70.00;;;;;;5258674;28;20835;-53
2022/10/12 12:20:42;;;;;;;7.87;2.03;;;15.10;69.80;;;;;;5262572;28;20451;-49
2022/10/12 12:23:37;;;;;;;6.23;2.20;;;15.10;69.50;;;;;;5243657;28;20443;-57
2022/10/12 12:26:10;;;;;;;2.53;1.67;;;15.20;69.30;;;;;;5243092;28;20459;-47
2022/10/12 12:28:42;;;;;;;8.53;2.17;;;15.20;69.90;;;;;;5249670;28;20478;-46
2022/10/12 12:31:21;;;;;;;4.07;2.00;;;15.30;70.00;;;;;;5261289;28;20440;-47
2022/10/12 12:34:11;;;;;;;5.60;1.87;;;15.30;70.20;;;;;;5249607;28;20873;-52
2022/10/12 12:36:48;;;;;;;14.50;2.53;;;15.20;70.40;;;;;;5247870;28;20463;-51
2022/10/12 12:39:31;;;;;;;8.73;2.57;;;15.10;70.40;;;;;;5249063;28;20796;-52
2022/10/12 12:42:04;;;;;;;5.43;2.67;;;15.00;71.00;;;;;;5239885;28;20591;-51
2022/10/12 12:44:42;;;;;;;5.30;2.27;;;15.10;71.10;;;;;;5250258;28;20770;-51
2022/10/12 12:47:12;;;;;;;10.40;4.67;;;15.50;69.00;;;;;;5248214;28;20834;-51
2022/10/12 12:49:47;;;;;;;4.70;3.00;;;15.60;68.20;;;;;;5260959;28;20439;-52
2022/10/12 12:52:24;;;;;;;3.17;2.40;;;15.70;67.40;;;;;;5249752;28;20654;-51
2022/10/12 12:55:04;;;;;;;7.27;1.97;;;15.80;66.10;;;;;;5262133;28;20470;-50
2022/10/12 12:58:05;;;;;;;6.67;2.17;;;15.80;65.80;;;;;;5250988;28;20558;-48
2022/10/12 13:00:51;;;;;;;3.10;1.43;;;15.60;65.40;;;;;;5249869;28;20428;-47
2022/10/12 13:03:44;;;;;;;9.27;1.87;;;15.60;64.40;;;;;;5266340;28;20440;-47
2022/10/12 13:06:27;;;;;;;15.23;2.67;;;15.50;64.00;;;;;;5226444;28;20479;-47
2022/10/12 13:09:06;;;;;;;19.67;2.53;;;15.60;64.70;;;;;;5260420;28;20523;-48
2022/10/12 13:11:37;;;;;;;6.93;1.47;;;15.40;64.00;;;;;;5259153;28;20468;-49
2022/10/12 13:14:26;;;;;;;4.57;1.80;;;15.30;64.20;;;;;;5248254;28;21016;-51
2022/10/12 13:17:09;;;;;;;9.73;2.13;;;15.30;64.10;;;;;;5251100;28;20198;-52
2022/10/12 13:19:41;;;;;;;5.33;1.97;;;15.40;64.30;;;;;;5248287;28;20432;-52
2022/10/12 13:22:21;;;;;;;6.90;2.10;;;15.40;65.20;;;;;;5254147;28;20517;-52
2022/10/12 13:24:57;;;;;;;2.83;1.53;;;15.30;64.90;;;;;;5252659;28;20951;-51